PWSweather.com
Personal Weather Stations
Station Observations
STEFBZH56
PontScorff, PontScorffFR

PontScorffPontScorffFR

Lat: 47.831518, Lon: -3.4222200000000385

Elevation: 141

Station Type: Oregon WMR200

http://www.meteo-pontscorff.fr

Latest ConditionsUpdated 10:05:00 AM GMT+01:01 Friday, Feb 22, 2019
Currently Today's Max Today's Min Today's Average
Temperature 48.2°F9.0°C 48.2°F9.0°C 34.7°F1.5°C 38.0°F3.3°C
Dew Point 47.7°F8.7°C 47.7°F8.7°C 34.2°F1.2°C 37.5°F3.1°C
Winds Calm Calm 3.7 mph -6.0 kmh - - 0.7 mph 1.1 kmh
Wind Gusts 1.3 mph2.1 kmh 7.4 mph11.9 kmh - -
Humidity 98% 98% 98% 98%
Pressure 30.47 in1031.8 mb 30.49 in1032.5 mb 30.43 in1030.5 mb -
Hour Temp Dew Point Humidity Winds Wind Gusts Pressure Precip Precip Rate Daily Precip Total
10:05 AM 48.2°F9.0°C 47.7°F8.7°C 98% Calm Calm 1.3 mph2.1 kmh 30.47 in1031.8 mb 0.00 in0.0 mm 0.00 in0.0 mm 0.00 in0.0 mm
10:00 AM 47.3°F8.5°C 46.8°F8.2°C 98% 0.1 mph SE0.2 kmh SE 2.0 mph3.2 kmh 30.49 in1032.5 mb 0.00 in0.0 mm 0.00 in0.0 mm 0.00 in0.0 mm
09:55 AM 46.7°F8.2°C 46.2°F7.9°C 98% 0.9 mph ESE1.4 kmh ESE 5.8 mph9.3 kmh 30.49 in1032.5 mb 0.00 in0.0 mm 0.00 in0.0 mm 0.00 in0.0 mm
09:50 AM 46.2°F7.9°C 45.7°F7.6°C 98% 0.1 mph E0.2 kmh E 1.8 mph2.9 kmh 30.49 in1032.5 mb 0.00 in0.0 mm 0.00 in0.0 mm 0.00 in0.0 mm
09:45 AM 45.0°F7.2°C 44.5°F6.9°C 98% 0.3 mph ESE0.5 kmh ESE 2.2 mph3.5 kmh 30.49 in1032.5 mb 0.00 in0.0 mm 0.00 in0.0 mm 0.00 in0.0 mm
09:40 AM 44.2°F6.8°C 43.7°F6.5°C 98% 1.5 mph E2.4 kmh E 5.6 mph9.0 kmh 30.49 in1032.5 mb 0.00 in0.0 mm 0.00 in0.0 mm 0.00 in0.0 mm
09:35 AM 43.5°F6.4°C 43.0°F6.1°C 98% 0.8 mph ESE1.3 kmh ESE 2.7 mph4.3 kmh 30.49 in1032.5 mb 0.00 in0.0 mm 0.00 in0.0 mm 0.00 in0.0 mm
09:30 AM 42.6°F5.9°C 42.1°F5.6°C 98% 1.0 mph E1.6 kmh E 2.7 mph4.3 kmh 30.49 in1032.5 mb 0.00 in0.0 mm 0.00 in0.0 mm 0.00 in0.0 mm
09:25 AM 41.7°F5.4°C 41.1°F5.1°C 98% 0.8 mph E1.3 kmh E 3.4 mph5.5 kmh 30.49 in1032.5 mb 0.00 in0.0 mm 0.00 in0.0 mm 0.00 in0.0 mm
09:20 AM 40.9°F4.9°C 40.4°F4.7°C 98% 1.5 mph E2.4 kmh E 4.0 mph6.4 kmh 30.48 in1032.2 mb 0.00 in0.0 mm 0.00 in0.0 mm 0.00 in0.0 mm
09:15 AM 40.1°F4.5°C 39.6°F4.2°C 98% Calm Calm -- 30.46 in1031.5 mb 0.00 in0.0 mm 0.00 in0.0 mm 0.00 in0.0 mm
09:10 AM 39.0°F3.9°C 38.5°F3.6°C 98% 0.5 mph E0.8 kmh E 3.4 mph5.5 kmh 30.46 in1031.5 mb 0.00 in0.0 mm 0.00 in0.0 mm 0.00 in0.0 mm
09:05 AM 38.1°F3.4°C 37.5°F3.1°C 98% 2.3 mph E3.7 kmh E 4.3 mph6.9 kmh 30.47 in1031.8 mb 0.00 in0.0 mm 0.00 in0.0 mm 0.00 in0.0 mm
09:00 AM 37.5°F3.1°C 37.0°F2.8°C 98% 2.2 mph E3.5 kmh E 6.0 mph9.7 kmh 30.49 in1032.5 mb 0.00 in0.0 mm 0.00 in0.0 mm 0.00 in0.0 mm
08:55 AM 37.0°F2.8°C 36.5°F2.5°C 98% 1.2 mph E1.9 kmh E 3.8 mph6.1 kmh 30.49 in1032.5 mb 0.00 in0.0 mm 0.00 in0.0 mm 0.00 in0.0 mm
08:50 AM 36.7°F2.6°C 36.2°F2.3°C 98% Calm Calm 1.1 mph1.8 kmh 30.48 in1032.2 mb 0.00 in0.0 mm 0.00 in0.0 mm 0.00 in0.0 mm
08:45 AM 36.5°F2.5°C 36.0°F2.2°C 98% Calm Calm -- 30.46 in1031.5 mb 0.00 in0.0 mm 0.00 in0.0 mm 0.00 in0.0 mm
08:40 AM 36.3°F2.4°C 35.8°F2.1°C 98% Calm Calm -- 30.46 in1031.5 mb 0.00 in0.0 mm 0.00 in0.0 mm 0.00 in0.0 mm
08:35 AM 36.4°F2.4°C 35.9°F2.2°C 98% Calm Calm -- 30.46 in1031.5 mb 0.00 in0.0 mm 0.00 in0.0 mm 0.00 in0.0 mm
08:30 AM 36.4°F2.4°C 35.8°F2.1°C 98% Calm Calm -- 30.46 in1031.5 mb 0.00 in0.0 mm 0.00 in0.0 mm 0.00 in0.0 mm
08:25 AM 36.4°F2.4°C 35.9°F2.2°C 98% 0.3 mph SE0.5 kmh SE 1.8 mph2.9 kmh 30.46 in1031.5 mb 0.00 in0.0 mm 0.00 in0.0 mm 0.00 in0.0 mm
08:20 AM 36.5°F2.5°C 36.0°F2.2°C 98% 0.9 mph SE1.4 kmh SE 2.9 mph4.7 kmh 30.46 in1031.5 mb 0.00 in0.0 mm 0.00 in0.0 mm 0.00 in0.0 mm
08:15 AM 36.2°F2.3°C 35.7°F2.1°C 98% 1.7 mph E2.7 kmh E 3.6 mph5.8 kmh 30.46 in1031.5 mb 0.00 in0.0 mm 0.00 in0.0 mm 0.00 in0.0 mm
08:10 AM 35.5°F1.9°C 34.9°F1.6°C 98% 0.4 mph E0.6 kmh E 3.4 mph5.5 kmh 30.46 in1031.5 mb 0.00 in0.0 mm 0.00 in0.0 mm 0.00 in0.0 mm
08:05 AM 35.1°F1.7°C 34.6°F1.4°C 98% Calm Calm -- 30.46 in1031.5 mb 0.00 in0.0 mm 0.00 in0.0 mm 0.00 in0.0 mm
08:00 AM 34.7°F1.5°C 34.2°F1.2°C 98% 0.4 mph E0.6 kmh E 2.0 mph3.2 kmh 30.46 in1031.5 mb 0.00 in0.0 mm 0.00 in0.0 mm 0.00 in0.0 mm
07:55 AM 34.8°F1.6°C 34.3°F1.3°C 98% 0.3 mph WSW0.5 kmh WSW 1.6 mph2.6 kmh 30.46 in1031.5 mb 0.00 in0.0 mm 0.00 in0.0 mm 0.00 in0.0 mm
07:50 AM 35.9°F2.2°C 35.4°F1.9°C 98% 0.8 mph WSW1.3 kmh WSW 3.1 mph5.0 kmh 30.46 in1031.5 mb 0.00 in0.0 mm 0.00 in0.0 mm 0.00 in0.0 mm
07:45 AM 36.1°F2.3°C 35.6°F2.0°C 98% Calm Calm -- 30.46 in1031.5 mb 0.00 in0.0 mm 0.00 in0.0 mm 0.00 in0.0 mm
07:40 AM 36.2°F2.3°C 35.7°F2.1°C 98% Calm Calm -- 30.46 in1031.5 mb 0.00 in0.0 mm 0.00 in0.0 mm 0.00 in0.0 mm
07:35 AM 36.3°F2.4°C 35.8°F2.1°C 98% Calm Calm -- 30.46 in1031.5 mb 0.00 in0.0 mm 0.00 in0.0 mm 0.00 in0.0 mm
07:30 AM 36.0°F2.2°C 35.5°F1.9°C 98% 0.2 mph E0.3 kmh E 1.6 mph2.6 kmh 30.46 in1031.5 mb 0.00 in0.0 mm 0.00 in0.0 mm 0.00 in0.0 mm
07:25 AM 35.7°F2.1°C 35.2°F1.8°C 98% 0.1 mph E0.2 kmh E 2.0 mph3.2 kmh 30.46 in1031.5 mb 0.00 in0.0 mm 0.00 in0.0 mm 0.00 in0.0 mm
07:20 AM 35.2°F1.8°C 34.7°F1.5°C 98% Calm Calm 1.1 mph1.8 kmh 30.46 in1031.5 mb 0.00 in0.0 mm 0.00 in0.0 mm 0.00 in0.0 mm
07:15 AM 35.4°F1.9°C 34.9°F1.6°C 98% Calm Calm -- 30.46 in1031.5 mb 0.00 in0.0 mm 0.00 in0.0 mm 0.00 in0.0 mm
07:10 AM 35.8°F2.1°C 35.3°F1.8°C 98% 0.2 mph WSW0.3 kmh WSW 2.0 mph3.2 kmh 30.46 in1031.5 mb 0.00 in0.0 mm 0.00 in0.0 mm 0.00 in0.0 mm
07:05 AM 36.2°F2.3°C 35.7°F2.1°C 98% Calm Calm -- 30.46 in1031.5 mb 0.00 in0.0 mm 0.00 in0.0 mm 0.00 in0.0 mm
07:00 AM 36.3°F2.4°C 35.8°F2.1°C 98% Calm Calm -- 30.46 in1031.5 mb 0.00 in0.0 mm 0.00 in0.0 mm 0.00 in0.0 mm
06:55 AM 36.3°F2.4°C 35.8°F2.1°C 98% 0.2 mph ESE0.3 kmh ESE 1.8 mph2.9 kmh 30.46 in1031.5 mb 0.00 in0.0 mm 0.00 in0.0 mm 0.00 in0.0 mm
06:50 AM 36.3°F2.4°C 35.8°F2.1°C 98% Calm Calm -- 30.45 in1031.2 mb 0.00 in0.0 mm 0.00 in0.0 mm 0.00 in0.0 mm
06:45 AM 36.3°F2.4°C 35.8°F2.1°C 98% 0.2 mph SE0.3 kmh SE 1.6 mph2.6 kmh 30.43 in1030.5 mb 0.00 in0.0 mm 0.00 in0.0 mm 0.00 in0.0 mm
06:40 AM 36.3°F2.4°C 35.8°F2.1°C 98% 1.2 mph SE1.9 kmh SE 2.7 mph4.3 kmh 30.43 in1030.5 mb 0.00 in0.0 mm 0.00 in0.0 mm 0.00 in0.0 mm
06:35 AM 36.2°F2.3°C 35.7°F2.1°C 98% 1.6 mph ESE2.6 kmh ESE 5.1 mph8.2 kmh 30.44 in1030.8 mb 0.00 in0.0 mm 0.00 in0.0 mm 0.00 in0.0 mm
06:30 AM 36.2°F2.3°C 35.7°F2.1°C 98% 1.5 mph SE2.4 kmh SE 4.3 mph6.9 kmh 30.46 in1031.5 mb 0.00 in0.0 mm 0.00 in0.0 mm 0.00 in0.0 mm
06:25 AM 36.3°F2.4°C 35.8°F2.1°C 98% 2.7 mph ESE4.3 kmh ESE 4.0 mph6.4 kmh 30.46 in1031.5 mb 0.00 in0.0 mm 0.00 in0.0 mm 0.00 in0.0 mm
06:20 AM 36.5°F2.5°C 36.0°F2.2°C 98% 1.8 mph E2.9 kmh E 4.3 mph6.9 kmh 30.46 in1031.5 mb 0.00 in0.0 mm 0.00 in0.0 mm 0.00 in0.0 mm
06:15 AM 36.6°F2.6°C 36.1°F2.3°C 98% 2.4 mph E3.9 kmh E 3.6 mph5.8 kmh 30.46 in1031.5 mb 0.00 in0.0 mm 0.00 in0.0 mm 0.00 in0.0 mm
06:10 AM 36.4°F2.4°C 35.9°F2.2°C 98% 2.2 mph E3.5 kmh E 4.5 mph7.2 kmh 30.46 in1031.5 mb 0.00 in0.0 mm 0.00 in0.0 mm 0.00 in0.0 mm
06:05 AM 36.0°F2.2°C 35.5°F1.9°C 98% 1.7 mph E2.7 kmh E 3.4 mph5.5 kmh 30.46 in1031.5 mb 0.00 in0.0 mm 0.00 in0.0 mm 0.00 in0.0 mm
06:00 AM 35.9°F2.2°C 35.4°F1.9°C 98% 0.3 mph SE0.5 kmh SE 2.7 mph4.3 kmh 30.46 in1031.5 mb 0.00 in0.0 mm 0.00 in0.0 mm 0.00 in0.0 mm
05:55 AM 35.6°F2.0°C 35.1°F1.7°C 98% 1.6 mph ESE2.6 kmh ESE 4.3 mph6.9 kmh 30.46 in1031.5 mb 0.00 in0.0 mm 0.00 in0.0 mm 0.00 in0.0 mm
05:50 AM 35.0°F1.7°C 34.4°F1.3°C 98% 1.0 mph E1.6 kmh E 3.8 mph6.1 kmh 30.46 in1031.5 mb 0.00 in0.0 mm 0.00 in0.0 mm 0.00 in0.0 mm
05:45 AM 34.7°F1.5°C 34.2°F1.2°C 98% 0.2 mph E0.3 kmh E 2.0 mph3.2 kmh 30.46 in1031.5 mb 0.00 in0.0 mm 0.00 in0.0 mm 0.00 in0.0 mm
05:40 AM 35.4°F1.9°C 34.9°F1.6°C 98% 1.4 mph WSW2.3 kmh WSW 3.4 mph5.5 kmh 30.46 in1031.5 mb 0.00 in0.0 mm 0.00 in0.0 mm 0.00 in0.0 mm
05:35 AM 36.8°F2.7°C 36.3°F2.4°C 98% 1.0 mph SW1.6 kmh SW 3.8 mph6.1 kmh 30.46 in1031.5 mb 0.00 in0.0 mm 0.00 in0.0 mm 0.00 in0.0 mm
05:30 AM 36.7°F2.6°C 36.2°F2.3°C 98% 1.8 mph E2.9 kmh E 4.0 mph6.4 kmh 30.46 in1031.5 mb 0.00 in0.0 mm 0.00 in0.0 mm 0.00 in0.0 mm
05:25 AM 35.9°F2.2°C 35.4°F1.9°C 98% 1.4 mph E2.3 kmh E 4.9 mph7.9 kmh 30.46 in1031.5 mb 0.00 in0.0 mm 0.00 in0.0 mm 0.00 in0.0 mm
05:20 AM 35.3°F1.8°C 34.8°F1.6°C 98% Calm Calm -- 30.46 in1031.5 mb 0.00 in0.0 mm 0.00 in0.0 mm 0.00 in0.0 mm
05:15 AM 35.2°F1.8°C 34.7°F1.5°C 98% Calm Calm -- 30.46 in1031.5 mb 0.00 in0.0 mm 0.00 in0.0 mm 0.00 in0.0 mm
05:10 AM 35.3°F1.8°C 34.8°F1.6°C 98% Calm Calm -- 30.46 in1031.5 mb 0.00 in0.0 mm 0.00 in0.0 mm 0.00 in0.0 mm
05:05 AM 35.9°F2.2°C 35.4°F1.9°C 98% Calm Calm -- 30.45 in1031.2 mb 0.00 in0.0 mm 0.00 in0.0 mm 0.00 in0.0 mm
05:00 AM 36.6°F2.6°C 36.1°F2.3°C 98% Calm Calm -- 30.43 in1030.5 mb 0.00 in0.0 mm 0.00 in0.0 mm 0.00 in0.0 mm
04:55 AM 37.0°F2.8°C 36.5°F2.5°C 98% Calm Calm -- 30.43 in1030.5 mb 0.00 in0.0 mm 0.00 in0.0 mm 0.00 in0.0 mm
04:50 AM 36.8°F2.7°C 36.3°F2.4°C 98% 0.1 mph E0.2 kmh E 1.6 mph2.6 kmh 30.44 in1030.8 mb 0.00 in0.0 mm 0.00 in0.0 mm 0.00 in0.0 mm
04:45 AM 36.3°F2.4°C 35.8°F2.1°C 98% Calm Calm 0.2 mph0.3 kmh 30.46 in1031.5 mb 0.00 in0.0 mm 0.00 in0.0 mm 0.00 in0.0 mm
04:40 AM 36.5°F2.5°C 36.0°F2.2°C 98% Calm Calm -- 30.46 in1031.5 mb 0.00 in0.0 mm 0.00 in0.0 mm 0.00 in0.0 mm
04:35 AM 37.0°F2.8°C 36.5°F2.5°C 98% Calm Calm -- 30.46 in1031.5 mb 0.00 in0.0 mm 0.00 in0.0 mm 0.00 in0.0 mm
04:30 AM 37.2°F2.9°C 36.7°F2.6°C 98% Calm Calm -- 30.46 in1031.5 mb 0.00 in0.0 mm 0.00 in0.0 mm 0.00 in0.0 mm
04:25 AM 37.1°F2.8°C 36.6°F2.6°C 98% 0.3 mph E0.5 kmh E 1.6 mph2.6 kmh 30.46 in1031.5 mb 0.00 in0.0 mm 0.00 in0.0 mm 0.00 in0.0 mm
04:20 AM 36.8°F2.7°C 36.3°F2.4°C 98% 0.5 mph E0.8 kmh E 2.7 mph4.3 kmh 30.46 in1031.5 mb 0.00 in0.0 mm 0.00 in0.0 mm 0.00 in0.0 mm
04:15 AM 37.0°F2.8°C 36.5°F2.5°C 98% Calm Calm 0.2 mph0.3 kmh 30.46 in1031.5 mb 0.00 in0.0 mm 0.00 in0.0 mm 0.00 in0.0 mm
04:10 AM 36.3°F2.4°C 35.8°F2.1°C 98% 0.3 mph E0.5 kmh E 3.6 mph5.8 kmh 30.46 in1031.5 mb 0.00 in0.0 mm 0.00 in0.0 mm 0.00 in0.0 mm
04:05 AM 36.0°F2.2°C 35.5°F1.9°C 98% Calm Calm -- 30.45 in1031.2 mb 0.00 in0.0 mm 0.00 in0.0 mm 0.00 in0.0 mm
04:00 AM 36.3°F2.4°C 35.8°F2.1°C 98% 0.5 mph SW0.8 kmh SW 3.1 mph5.0 kmh 30.43 in1030.5 mb 0.00 in0.0 mm 0.00 in0.0 mm 0.00 in0.0 mm
03:55 AM 37.3°F2.9°C 36.8°F2.7°C 98% 2.5 mph WSW4.0 kmh WSW 3.8 mph6.1 kmh 30.43 in1030.5 mb 0.00 in0.0 mm 0.00 in0.0 mm 0.00 in0.0 mm
03:50 AM 38.0°F3.3°C 37.5°F3.1°C 98% Calm Calm -- 30.43 in1030.5 mb 0.00 in0.0 mm 0.00 in0.0 mm 0.00 in0.0 mm
03:45 AM 38.1°F3.4°C 37.6°F3.1°C 98% Calm Calm -- 30.43 in1030.5 mb 0.00 in0.0 mm 0.00 in0.0 mm 0.00 in0.0 mm
03:40 AM 38.1°F3.4°C 37.6°F3.1°C 98% Calm Calm -- 30.43 in1030.5 mb 0.00 in0.0 mm 0.00 in0.0 mm 0.00 in0.0 mm
03:35 AM 37.8°F3.2°C 37.3°F2.9°C 98% 1.1 mph E1.8 kmh E 3.8 mph6.1 kmh 30.44 in1030.8 mb 0.00 in0.0 mm 0.00 in0.0 mm 0.00 in0.0 mm
03:30 AM 37.5°F3.1°C 36.9°F2.7°C 98% 0.8 mph E1.3 kmh E 2.9 mph4.7 kmh 30.46 in1031.5 mb 0.00 in0.0 mm 0.00 in0.0 mm 0.00 in0.0 mm
03:25 AM 37.8°F3.2°C 37.3°F2.9°C 98% Calm Calm -- 30.46 in1031.5 mb 0.00 in0.0 mm 0.00 in0.0 mm 0.00 in0.0 mm
03:20 AM 38.1°F3.4°C 37.6°F3.1°C 98% Calm Calm -- 30.45 in1031.2 mb 0.00 in0.0 mm 0.00 in0.0 mm 0.00 in0.0 mm
03:15 AM 38.5°F3.6°C 38.0°F3.3°C 98% Calm Calm -- 30.43 in1030.5 mb 0.00 in0.0 mm 0.00 in0.0 mm 0.00 in0.0 mm
03:10 AM 38.7°F3.7°C 38.2°F3.4°C 98% Calm Calm -- 30.43 in1030.5 mb 0.00 in0.0 mm 0.00 in0.0 mm 0.00 in0.0 mm
03:05 AM 38.9°F3.8°C 38.4°F3.6°C 98% 0.3 mph SE0.5 kmh SE 1.6 mph2.6 kmh 30.43 in1030.5 mb 0.00 in0.0 mm 0.00 in0.0 mm 0.00 in0.0 mm
03:00 AM 39.2°F4.0°C 38.7°F3.7°C 98% 2.3 mph SE3.7 kmh SE 3.6 mph5.8 kmh 30.43 in1030.5 mb 0.00 in0.0 mm 0.00 in0.0 mm 0.00 in0.0 mm
02:55 AM 39.4°F4.1°C 38.8°F3.8°C 98% 2.7 mph E4.3 kmh E 6.3 mph10.1 kmh 30.43 in1030.5 mb 0.00 in0.0 mm 0.00 in0.0 mm 0.00 in0.0 mm
02:50 AM 39.1°F3.9°C 38.5°F3.6°C 98% 2.8 mph E4.5 kmh E 4.3 mph6.9 kmh 30.44 in1030.8 mb 0.00 in0.0 mm 0.00 in0.0 mm 0.00 in0.0 mm
02:45 AM 38.2°F3.4°C 37.7°F3.2°C 98% 3.2 mph E5.1 kmh E 5.6 mph9.0 kmh 30.46 in1031.5 mb 0.00 in0.0 mm 0.00 in0.0 mm 0.00 in0.0 mm
02:40 AM 37.3°F2.9°C 36.8°F2.7°C 98% 0.1 mph E0.2 kmh E 2.5 mph4.0 kmh 30.46 in1031.5 mb 0.00 in0.0 mm 0.00 in0.0 mm 0.00 in0.0 mm
02:35 AM 37.7°F3.2°C 37.1°F2.8°C 98% Calm Calm -- 30.45 in1031.2 mb 0.00 in0.0 mm 0.00 in0.0 mm 0.00 in0.0 mm
02:30 AM 39.0°F3.9°C 38.5°F3.6°C 98% Calm Calm 1.3 mph2.1 kmh 30.43 in1030.5 mb 0.00 in0.0 mm 0.00 in0.0 mm 0.00 in0.0 mm
02:25 AM 39.8°F4.3°C 39.3°F4.1°C 98% Calm Calm 1.1 mph1.8 kmh 30.43 in1030.5 mb 0.00 in0.0 mm 0.00 in0.0 mm 0.00 in0.0 mm
02:20 AM 40.0°F4.4°C 39.5°F4.2°C 98% 1.8 mph SE2.9 kmh SE 3.6 mph5.8 kmh 30.44 in1030.8 mb 0.00 in0.0 mm 0.00 in0.0 mm 0.00 in0.0 mm
02:15 AM 39.9°F4.4°C 39.4°F4.1°C 98% 3.7 mph E6.0 kmh E 7.4 mph11.9 kmh 30.46 in1031.5 mb 0.00 in0.0 mm 0.00 in0.0 mm 0.00 in0.0 mm
02:10 AM 39.4°F4.1°C 38.9°F3.8°C 98% 2.6 mph E4.2 kmh E 6.0 mph9.7 kmh 30.46 in1031.5 mb 0.00 in0.0 mm 0.00 in0.0 mm 0.00 in0.0 mm
02:05 AM 39.2°F4.0°C 38.7°F3.7°C 98% 1.3 mph ESE2.1 kmh ESE 4.0 mph6.4 kmh 30.46 in1031.5 mb 0.00 in0.0 mm 0.00 in0.0 mm 0.00 in0.0 mm
02:00 AM 39.1°F3.9°C 38.6°F3.7°C 98% 0.8 mph ESE1.3 kmh ESE 3.4 mph5.5 kmh 30.46 in1031.5 mb 0.00 in0.0 mm 0.00 in0.0 mm 0.00 in0.0 mm
01:55 AM 38.8°F3.8°C 38.3°F3.5°C 98% 1.1 mph ESE1.8 kmh ESE 3.4 mph5.5 kmh 30.46 in1031.5 mb 0.00 in0.0 mm 0.00 in0.0 mm 0.00 in0.0 mm
01:50 AM 38.6°F3.7°C 38.1°F3.4°C 98% 1.1 mph E1.8 kmh E 3.1 mph5.0 kmh 30.46 in1031.5 mb 0.00 in0.0 mm 0.00 in0.0 mm 0.00 in0.0 mm
01:45 AM 38.4°F3.6°C 37.9°F3.3°C 98% Calm Calm -- 30.46 in1031.5 mb 0.00 in0.0 mm 0.00 in0.0 mm 0.00 in0.0 mm
01:40 AM 38.0°F3.3°C 37.5°F3.1°C 98% Calm Calm -- 30.46 in1031.5 mb 0.00 in0.0 mm 0.00 in0.0 mm 0.00 in0.0 mm
01:35 AM 37.7°F3.2°C 37.2°F2.9°C 98% Calm Calm -- 30.46 in1031.5 mb 0.00 in0.0 mm 0.00 in0.0 mm 0.00 in0.0 mm
01:30 AM 38.2°F3.4°C 37.7°F3.2°C 98% Calm Calm -- 30.49 in1032.5 mb 0.00 in0.0 mm 0.00 in0.0 mm 0.00 in0.0 mm
01:25 AM 38.2°F3.4°C 37.6°F3.1°C 98% Calm Calm -- 30.49 in1032.5 mb 0.00 in0.0 mm 0.00 in0.0 mm 0.00 in0.0 mm
01:20 AM 37.7°F3.2°C 37.1°F2.8°C 98% Calm Calm -- 30.48 in1032.2 mb 0.00 in0.0 mm 0.00 in0.0 mm 0.00 in0.0 mm
01:15 AM 37.6°F3.1°C 37.1°F2.8°C 98% Calm Calm -- 30.46 in1031.5 mb 0.00 in0.0 mm 0.00 in0.0 mm 0.00 in0.0 mm
01:10 AM 37.9°F3.3°C 37.4°F3.0°C 98% Calm Calm -- 30.46 in1031.5 mb 0.00 in0.0 mm 0.00 in0.0 mm 0.00 in0.0 mm
01:05 AM 38.5°F3.6°C 38.0°F3.3°C 98% Calm Calm -- 30.46 in1031.5 mb 0.00 in0.0 mm 0.00 in0.0 mm 0.00 in0.0 mm
01:00 AM 38.8°F3.8°C 38.3°F3.5°C 98% Calm Calm -- 30.46 in1031.5 mb 0.00 in0.0 mm 0.00 in0.0 mm 0.00 in0.0 mm
12:55 AM 38.6°F3.7°C 38.1°F3.4°C 98% 0.1 mph E0.2 kmh E 1.8 mph2.9 kmh 30.46 in1031.5 mb 0.00 in0.0 mm 0.00 in0.0 mm 0.00 in0.0 mm
12:50 AM 38.3°F3.5°C 37.8°F3.2°C 98% Calm Calm -- 30.46 in1031.5 mb 0.00 in0.0 mm 0.00 in0.0 mm 0.00 in0.0 mm
12:45 AM 38.5°F3.6°C 38.0°F3.3°C 98% Calm Calm -- 30.46 in1031.5 mb 0.00 in0.0 mm 0.00 in0.0 mm 0.00 in0.0 mm
12:40 AM 39.2°F4.0°C 38.6°F3.7°C 98% Calm Calm -- 30.46 in1031.5 mb 0.00 in0.0 mm 0.00 in0.0 mm 0.00 in0.0 mm
12:35 AM 40.1°F4.5°C 39.6°F4.2°C 98% Calm Calm -- 30.45 in1031.2 mb 0.00 in0.0 mm 0.00 in0.0 mm 0.00 in0.0 mm
12:30 AM 40.6°F4.8°C 40.1°F4.5°C 98% 0.1 mph E0.2 kmh E 1.8 mph2.9 kmh 30.43 in1030.5 mb 0.00 in0.0 mm 0.00 in0.0 mm 0.00 in0.0 mm
12:25 AM 40.7°F4.8°C 40.2°F4.6°C 98% 1.8 mph E2.9 kmh E 4.0 mph6.4 kmh 30.43 in1030.5 mb 0.00 in0.0 mm 0.00 in0.0 mm 0.00 in0.0 mm
12:20 AM 40.5°F4.7°C 40.0°F4.4°C 98% 1.8 mph E2.9 kmh E 3.8 mph6.1 kmh 30.43 in1030.5 mb 0.00 in0.0 mm 0.00 in0.0 mm 0.00 in0.0 mm
12:15 AM 40.5°F4.7°C 40.0°F4.4°C 98% 1.6 mph E2.6 kmh E 3.8 mph6.1 kmh 30.43 in1030.5 mb 0.00 in0.0 mm 0.00 in0.0 mm 0.00 in0.0 mm
12:10 AM 40.6°F4.8°C 40.1°F4.5°C 98% 1.6 mph E2.6 kmh E 3.6 mph5.8 kmh 30.43 in1030.5 mb 0.00 in0.0 mm 0.00 in0.0 mm 0.00 in0.0 mm
12:05 AM 40.5°F4.7°C 40.0°F4.4°C 98% 1.8 mph E2.9 kmh E 4.3 mph6.9 kmh 30.43 in1030.5 mb 0.00 in0.0 mm 0.00 in0.0 mm 0.00 in0.0 mm
12:00 AM 40.5°F4.7°C 39.9°F4.4°C 98% 0.3 mph E0.5 kmh E 1.8 mph2.9 kmh 30.43 in1030.5 mb 0.00 in0.0 mm 0.00 in0.0 mm 0.00 in0.0 mm